createdAt,value
2019-04-27T00:06:13.563Z,76.70
2019-04-27T00:16:36.280Z,77.50
2019-04-27T00:26:43.347Z,78.20
2019-04-27T00:37:09.192Z,78.80
2019-04-27T00:47:14.936Z,80.20
2019-04-27T00:57:22.882Z,84.20
2019-04-27T01:07:29.609Z,95.40
2019-04-27T01:17:35.211Z,97.50
2019-04-27T01:27:45.399Z,99.30
2019-04-27T01:37:50.937Z,99.90
2019-04-27T02:08:09.413Z,99.90
2019-04-27T02:18:14.693Z,99.90
2019-04-27T02:28:33.785Z,99.90
2019-04-27T02:38:40.702Z,99.90
2019-04-27T02:48:56.670Z,99.90
2019-04-27T02:58:53.882Z,99.90
2019-04-27T03:09:00.484Z,99.90
2019-04-27T03:29:23.018Z,96.90
2019-04-27T03:39:30.365Z,95.70
2019-04-27T04:30:19.975Z,99.90
2019-04-27T04:40:30.635Z,99.90
2019-04-27T04:50:36.856Z,99.90
2019-04-27T05:00:43.493Z,99.90
2019-04-27T05:10:49.665Z,98.90
2019-04-27T05:20:58.601Z,99.90
2019-04-27T05:31:04.532Z,99.90
2019-04-27T05:41:10.131Z,99.90
2019-04-27T05:51:21.339Z,99.90
2019-04-27T06:01:26.893Z,99.50
2019-04-27T06:41:49.010Z,99.90
2019-04-27T06:51:54.683Z,99.90
2019-04-27T07:02:00.880Z,99.90
2019-04-27T11:26:15.973Z,99.90
2019-04-27T11:36:25.772Z,99.90
2019-04-27T12:57:45.695Z,99.90
2019-04-27T13:07:51.729Z,99.90
2019-04-27T13:18:05.608Z,99.90
2019-04-27T14:39:08.857Z,99.90
2019-04-27T15:09:26.773Z,99.90
2019-04-27T15:29:40.580Z,99.90
2019-04-27T16:00:17.572Z,99.90
2019-04-27T16:10:20.157Z,99.90
2019-04-27T16:20:34.860Z,99.90
2019-04-27T16:30:45.608Z,99.90
2019-04-27T16:40:54.771Z,99.90
2019-04-27T16:50:59.362Z,99.90
2019-04-27T17:01:12.212Z,99.90
2019-04-27T17:11:19.605Z,99.90
2019-04-27T17:21:28.806Z,99.90
2019-04-27T17:31:38.143Z,99.90
2019-04-27T17:41:49.130Z,99.90
2019-04-27T18:02:00.802Z,99.90
2019-04-27T18:12:08.112Z,99.90
2019-04-27T18:22:11.891Z,99.90
2019-04-27T18:42:27.203Z,99.90
2019-04-27T18:52:49.951Z,99.90
2019-04-27T19:02:56.096Z,99.90
2019-04-27T19:13:02.127Z,99.90
2019-04-27T19:23:08.800Z,99.90
2019-04-27T20:24:43.993Z,99.90
2019-04-27T20:34:52.949Z,99.90
2019-04-27T20:44:58.513Z,99.90
2019-04-27T20:55:08.199Z,99.90
2019-04-27T21:05:37.409Z,99.90
2019-04-27T21:15:43.139Z,99.90
2019-04-27T21:25:51.133Z,99.90
2019-04-27T21:35:56.019Z,99.90
2019-04-27T21:46:01.669Z,99.90
2019-04-27T21:56:11.047Z,99.90
2019-04-27T22:06:16.455Z,99.90
2019-04-27T22:16:22.257Z,99.90
2019-04-27T22:26:27.923Z,99.90
2019-04-27T22:36:33.491Z,99.90
2019-04-27T22:46:41.060Z,99.90
2019-04-27T22:56:48.409Z,99.90
2019-04-27T23:06:54.335Z,99.90
2019-04-27T23:17:17.823Z,99.90
2019-04-27T23:27:34.187Z,99.90
2019-04-27T23:37:39.811Z,99.90
2019-04-27T23:47:45.363Z,99.90
2019-04-27T23:57:51.000Z,99.90
